Time;durP1;ratioP1;P1;durP2;ratioP2;P2;SDS_P1;SDS_P2;PMS_P1;PMS_P2;Temp;Humidity;BMP_temperature;BMP_pressure;BME280_temperature;BME280_humidity;BME280_pressure;Samples;Min_cycle;Max_cycle;Signal;HPM_P1;HPM_P2
2022/01/27 00:05:35;;;;;;;58.83;24.45;;;;;;;-0.29;90.39;96837.84;5043607;28;20091;-47
2022/01/27 00:08:15;;;;;;;57.85;26.17;;;;;;;-0.31;90.49;96838.06;5034778;28;20045;-45
2022/01/27 00:10:52;;;;;;;66.22;28.45;;;;;;;-0.38;90.71;96841.94;5027036;22;20140;-50
2022/01/27 00:13:25;;;;;;;59.58;25.25;;;;;;;-0.75;92.48;96847.66;5034684;28;20124;-48
2022/01/27 00:16:00;;;;;;;61.25;25.63;;;;;;;-0.36;91.11;96845.97;5034502;28;20445;-50
2022/01/27 00:18:29;;;;;;;57.92;26.20;;;;;;;-0.24;89.81;96838.72;5031483;28;20038;-49
2022/01/27 00:20:56;;;;;;;57.03;24.73;;;;;;;-0.33;90.73;96832.19;5022442;28;20117;-51
2022/01/27 00:23:23;;;;;;;67.13;27.17;;;;;;;-0.33;90.33;96842.00;5005370;28;20040;-50
2022/01/27 00:25:50;;;;;;;65.40;27.45;;;;;;;-0.33;89.78;96826.06;5023127;28;20046;-50
2022/01/27 00:28:18;;;;;;;60.53;26.45;;;;;;;-0.86;94.09;96832.56;5005604;28;20046;-48
2022/01/27 00:30:44;;;;;;;58.72;24.55;;;;;;;-0.71;93.23;96824.91;5019599;28;20100;-53
2022/01/27 00:33:11;;;;;;;56.33;25.58;;;;;;;-0.87;93.04;96823.81;5005327;28;20034;-51
2022/01/27 00:35:38;;;;;;;60.13;25.77;;;;;;;-0.43;90.72;96825.91;5014472;28;20049;-50
2022/01/27 00:38:08;;;;;;;56.05;24.38;;;;;;;-1.09;93.88;96826.31;5013748;28;20088;-48
2022/01/27 00:40:35;;;;;;;54.05;24.45;;;;;;;-1.04;94.42;96834.38;5008572;28;20041;-45
2022/01/27 00:43:02;;;;;;;53.88;25.58;;;;;;;-0.90;94.12;96839.41;5014148;28;20038;-46
2022/01/27 00:45:30;;;;;;;57.85;25.92;;;;;;;-1.21;94.76;96849.41;4996847;28;20056;-48
2022/01/27 00:48:01;;;;;;;56.88;25.23;;;;;;;-0.65;92.27;96853.19;5014362;28;20050;-46
2022/01/27 00:50:29;;;;;;;65.28;28.48;;;;;;;-0.58;90.84;96847.72;5013620;28;20506;-47
2022/01/27 00:52:57;;;;;;;60.20;25.25;;;;;;;-0.86;92.69;96846.66;5008542;28;20056;-51
2022/01/27 00:55:26;;;;;;;54.67;24.90;;;;;;;-0.71;92.75;96838.97;5020171;28;20113;-48
2022/01/27 00:58:09;;;;;;;59.78;27.08;;;;;;;-0.49;90.50;96825.00;5022989;28;20129;-47
2022/01/27 01:00:48;;;;;;;56.97;24.80;;;;;;;-0.86;91.87;96841.34;5020837;28;20506;-49
2022/01/27 01:03:26;;;;;;;52.70;23.02;;;;;;;-0.83;92.62;96838.22;5014381;28;20115;-50
2022/01/27 01:16:36;;;;;;;62.05;24.70;;;;;;;-1.27;96.33;96819.31;5013670;28;20053;-51
2022/01/27 01:30:33;;;;;;;53.22;23.02;;;;;;;-0.86;95.05;96806.00;5009118;28;20043;-47
2022/01/27 01:33:04;;;;;;;59.20;25.33;;;;;;;-1.10;96.25;96823.91;5017224;28;20137;-46
2022/01/27 01:38:22;;;;;;;61.78;26.88;;;;;;;-0.51;90.91;96821.78;5013319;28;20045;-47
2022/01/27 01:40:51;;;;;;;64.32;27.00;;;;;;;-0.91;93.23;96825.31;5000810;28;20046;-50
2022/01/27 01:43:20;;;;;;;62.33;26.52;;;;;;;-1.31;95.69;96834.09;4994959;28;20065;-52
2022/01/27 01:45:48;;;;;;;56.83;25.10;;;;;;;-1.19;95.55;96836.72;5014635;28;20073;-51
2022/01/27 01:48:16;;;;;;;62.97;27.75;;;;;;;-0.63;92.09;96843.09;5016381;28;20049;-49
2022/01/27 01:50:43;;;;;;;58.47;26.30;;;;;;;-0.59;92.51;96824.81;5013100;28;20038;-50
2022/01/27 01:53:11;;;;;;;60.72;25.88;;;;;;;-0.97;93.90;96839.56;5015678;28;20133;-46
2022/01/27 01:55:38;;;;;;;57.17;25.45;;;;;;;-1.10;95.14;96831.84;5012591;28;20041;-47
2022/01/27 01:58:05;;;;;;;63.90;27.23;;;;;;;-0.48;91.45;96827.44;5013070;28;20052;-45
2022/01/27 02:00:32;;;;;;;66.00;28.17;;;;;;;-0.44;90.79;96827.75;4994916;28;20453;-46
2022/01/27 02:02:59;;;;;;;61.45;26.58;;;;;;;-0.12;89.51;96816.56;4994976;28;20109;-50
2022/01/27 02:05:31;;;;;;;57.90;26.27;;;;;;;-0.20;89.45;96814.31;5012195;28;20117;-48
2022/01/27 02:19:25;;;;;;;59.70;26.65;;;;;;;-0.28;88.79;96818.97;5021253;28;20048;-50
2022/01/27 02:21:54;;;;;;;62.88;27.00;;;;;;;-0.27;88.85;96819.78;5011639;28;20049;-48
2022/01/27 02:24:24;;;;;;;56.95;26.80;;;;;;;-0.20;88.51;96811.66;4998657;28;20057;-51
2022/01/27 02:26:51;;;;;;;65.38;26.05;;;;;;;-0.31;88.99;96792.88;5021237;28;20052;-50
2022/01/27 02:29:20;;;;;;;64.60;28.17;;;;;;;-0.35;88.36;96791.75;5022183;28;20061;-49
2022/01/27 02:31:50;;;;;;;64.40;28.70;;;;;;;-0.31;88.75;96800.03;5018549;28;20073;-48
2022/01/27 02:34:17;;;;;;;63.05;28.95;;;;;;;-0.38;88.65;96788.78;5021251;28;20048;-51
2022/01/27 02:36:44;;;;;;;67.55;28.52;;;;;;;-0.29;88.25;96795.31;5003777;28;20450;-47
2022/01/27 02:39:13;;;;;;;58.72;26.23;;;;;;;-0.52;89.29;96791.75;5009805;28;20057;-47
2022/01/27 02:41:49;;;;;;;61.53;27.38;;;;;;;-0.43;89.61;96788.66;5005134;28;20042;-47
2022/01/27 02:44:37;;;;;;;59.30;26.40;;;;;;;-0.65;89.33;96791.22;5012254;28;20133;-45
2022/01/27 02:47:04;;;;;;;65.75;28.17;;;;;;;-0.82;90.68;96792.00;4994063;28;20046;-46
2022/01/27 02:49:31;;;;;;;68.95;29.05;;;;;;;-0.78;90.05;96771.91;5009572;28;20045;-46
2022/01/27 02:51:58;;;;;;;68.15;27.23;;;;;;;-0.82;90.62;96794.66;5011289;28;20133;-48
2022/01/27 02:54:25;;;;;;;60.30;27.05;;;;;;;-1.30;93.90;96787.94;4994068;28;20042;-45
2022/01/27 02:57:11;;;;;;;66.50;30.10;;;;;;;-1.03;91.67;96793.50;5002703;28;20443;-49
2022/01/27 02:59:38;;;;;;;64.75;26.90;;;;;;;-1.33;93.01;96785.75;5011454;28;20042;-50
2022/01/27 03:02:05;;;;;;;59.78;26.63;;;;;;;-0.98;92.04;96787.44;5006788;28;20043;-48
2022/01/27 03:04:34;;;;;;;61.92;26.23;;;;;;;-1.26;93.83;96778.44;4994079;28;20129;-50
2022/01/27 03:07:06;;;;;;;59.55;26.27;;;;;;;-0.61;90.57;96773.78;5011958;28;20408;-50
2022/01/27 03:09:34;;;;;;;62.40;28.67;;;;;;;-0.45;89.63;96775.63;4993677;28;20073;-46
2022/01/27 03:12:06;;;;;;;67.45;28.48;;;;;;;-0.58;89.12;96773.28;4996649;28;20511;-46
2022/01/27 03:14:35;;;;;;;67.67;29.10;;;;;;;-0.37;88.86;96769.91;5009834;28;20121;-46
2022/01/27 03:17:04;;;;;;;63.42;26.80;;;;;;;-0.64;89.66;96763.63;5011346;28;20045;-47
2022/01/27 03:19:32;;;;;;;62.25;28.15;;;;;;;-0.53;89.08;96760.06;5010683;28;20038;-49
2022/01/27 03:22:02;;;;;;;64.88;29.00;;;;;;;-0.64;89.68;96758.31;5000430;28;20145;-50
2022/01/27 03:24:30;;;;;;;61.05;28.35;;;;;;;-0.75;89.97;96746.69;5006341;28;20050;-47
2022/01/27 03:26:57;;;;;;;69.07;28.50;;;;;;;-0.63;89.36;96741.31;5011324;28;20135;-48
2022/01/27 03:29:25;;;;;;;65.07;29.45;;;;;;;-0.66;89.52;96749.75;5011136;28;20075;-49
2022/01/27 03:31:53;;;;;;;65.68;28.00;;;;;;;-0.61;89.03;96741.88;4992615;28;20103;-46
2022/01/27 03:34:20;;;;;;;61.25;28.02;;;;;;;-0.90;90.44;96754.41;5011218;28;20042;-44
2022/01/27 03:36:47;;;;;;;62.97;29.42;;;;;;;-0.98;91.29;96763.53;5011090;28;20052;-46
2022/01/27 03:39:18;;;;;;;62.40;28.25;;;;;;;-0.97;91.25;96763.31;5011192;28;20137;-46
2022/01/27 03:41:50;;;;;;;61.47;27.60;;;;;;;-0.97;90.45;96744.72;4989988;28;20128;-50
2022/01/27 03:44:21;;;;;;;69.85;29.77;;;;;;;-0.93;89.53;96736.28;5007243;28;20046;-47
2022/01/27 03:46:54;;;;;;;64.78;27.40;;;;;;;-0.95;90.30;96739.16;5011394;28;20041;-46
2022/01/27 03:49:21;;;;;;;62.80;26.95;;;;;;;-1.72;94.01;96748.34;5005800;28;20049;-45
2022/01/27 03:51:48;;;;;;;69.50;29.08;;;;;;;-1.62;94.29;96762.84;5009593;28;20581;-45
2022/01/27 03:54:15;;;;;;;62.03;27.40;;;;;;;-1.12;91.89;96762.22;4992912;28;20046;-50
2022/01/27 03:56:43;;;;;;;61.58;28.25;;;;;;;-1.39;91.80;96772.59;5011210;28;20410;-47
2022/01/27 03:59:11;;;;;;;63.53;27.45;;;;;;;-2.04;96.25;96773.63;5010536;28;20509;-47
2022/01/27 04:01:39;;;;;;;62.97;26.92;;;;;;;-2.05;95.72;96774.66;5007744;28;20046;-51
2022/01/27 04:04:06;;;;;;;56.10;25.80;;;;;;;-1.60;95.01;96779.34;5011162;28;20046;-49
2022/01/27 04:06:39;;;;;;;66.07;27.27;;;;;;;-1.94;96.82;96771.19;4993698;28;20046;-45
2022/01/27 04:09:08;;;;;;;60.92;27.60;;;;;;;-2.40;98.47;96762.22;5006999;28;20142;-48
2022/01/27 04:11:37;;;;;;;60.53;26.98;;;;;;;-2.14;97.85;96763.59;5008857;28;20473;-44
2022/01/27 04:14:05;;;;;;;64.25;27.92;;;;;;;-1.36;93.67;96751.72;5010982;28;20080;-49
2022/01/27 04:16:32;;;;;;;62.60;27.17;;;;;;;-1.39;93.57;96746.88;5010071;28;20124;-46
2022/01/27 04:18:59;;;;;;;64.35;26.92;;;;;;;-1.93;96.48;96738.31;5006800;28;20570;-46
2022/01/27 04:21:26;;;;;;;58.15;26.65;;;;;;;-1.33;92.87;96731.81;5010823;28;20132;-44
2022/01/27 04:23:53;;;;;;;69.47;29.42;;;;;;;-1.21;91.12;96722.78;5007768;28;20128;-48
2022/01/27 04:26:26;;;;;;;63.53;29.10;;;;;;;-2.10;96.29;96734.78;4992985;28;20499;-46
2022/01/27 04:28:53;;;;;;;68.60;29.08;;;;;;;-1.78;95.64;96749.28;5011407;28;20049;-50
2022/01/27 04:31:22;;;;;;;58.97;26.75;;;;;;;-1.38;92.85;96732.53;4996510;28;20046;-47
2022/01/27 04:33:49;;;;;;;64.28;27.98;;;;;;;-1.16;91.54;96734.53;5013054;28;20052;-45
2022/01/27 04:36:24;;;;;;;61.10;27.98;;;;;;;-1.01;90.57;96737.47;5014527;28;20475;-45
2022/01/27 04:39:10;;;;;;;67.15;30.25;;;;;;;-0.89;89.40;96724.94;5014393;28;20655;-45
2022/01/27 04:41:53;;;;;;;64.47;29.00;;;;;;;-1.09;89.72;96714.75;5012339;28;20108;-49
2022/01/27 04:44:37;;;;;;;71.00;29.88;;;;;;;-1.09;89.92;96706.00;5014083;28;20049;-46
2022/01/27 04:47:16;;;;;;;61.85;28.05;;;;;;;-1.02;90.20;96703.97;5013838;28;20164;-45
2022/01/27 04:49:44;;;;;;;60.30;25.98;;;;;;;-1.00;90.24;96707.22;4992478;28;20034;-51
2022/01/27 04:52:11;;;;;;;61.28;28.08;;;;;;;-1.27;90.52;96704.31;4983408;28;20056;-50
2022/01/27 04:54:52;;;;;;;60.97;27.20;;;;;;;-1.31;90.78;96706.66;5005988;28;20068;-45
2022/01/27 04:57:19;;;;;;;60.78;28.08;;;;;;;-1.16;90.35;96702.69;5013986;28;20157;-44
2022/01/27 04:59:46;;;;;;;57.28;26.60;;;;;;;-1.30;90.40;96700.31;5013425;28;20048;-50
2022/01/27 05:02:29;;;;;;;59.38;27.42;;;;;;;-1.45;91.40;96695.53;5011451;28;20046;-44
2022/01/27 05:04:56;;;;;;;58.85;26.48;;;;;;;-1.39;91.41;96696.44;4999932;28;20037;-49
2022/01/27 05:07:43;;;;;;;57.15;26.20;;;;;;;-1.48;91.98;96708.47;5008608;28;20507;-48
2022/01/27 05:10:14;;;;;;;58.95;26.00;;;;;;;-1.56;91.96;96699.03;5013033;28;20042;-47
2022/01/27 05:12:50;;;;;;;55.80;27.10;;;;;;;-1.79;93.24;96694.56;5011897;28;20038;-46
2022/01/27 05:15:18;;;;;;;57.35;26.15;;;;;;;-2.13;94.45;96694.44;5014288;28;20472;-44
2022/01/27 05:17:45;;;;;;;54.90;25.88;;;;;;;-1.69;92.28;96689.50;5013319;28;20487;-45
2022/01/27 05:20:12;;;;;;;53.03;25.13;;;;;;;-1.86;93.83;96688.59;5009685;28;20125;-46
2022/01/27 05:22:39;;;;;;;53.70;27.17;;;;;;;-1.74;93.53;96686.75;5000149;28;20097;-46
2022/01/27 05:25:07;;;;;;;53.10;25.30;;;;;;;-1.74;93.17;96681.44;5010688;28;20041;-49
2022/01/27 05:27:34;;;;;;;52.97;25.48;;;;;;;-1.44;92.24;96678.53;5013563;28;20484;-45
2022/01/27 05:30:01;;;;;;;56.47;26.38;;;;;;;-1.49;92.84;96680.31;5012898;28;20496;-50
2022/01/27 05:32:28;;;;;;;51.97;25.80;;;;;;;-2.18;94.70;96673.13;5007979;28;20048;-45
2022/01/27 05:34:55;;;;;;;52.20;25.15;;;;;;;-2.44;96.83;96682.38;5013216;28;20050;-45
2022/01/27 05:37:22;;;;;;;54.83;26.35;;;;;;;-2.48;97.34;96685.69;5013423;28;20042;-46
2022/01/27 05:39:49;;;;;;;49.05;24.65;;;;;;;-2.32;96.35;96678.88;5006191;28;20046;-49
2022/01/27 05:42:16;;;;;;;50.40;24.02;;;;;;;-2.47;97.22;96677.53;5012418;28;20092;-44
2022/01/27 05:44:43;;;;;;;53.47;26.58;;;;;;;-2.02;95.41;96673.44;5013191;28;20042;-50
2022/01/27 05:47:10;;;;;;;50.95;24.73;;;;;;;-2.32;95.42;96673.59;4993114;28;20491;-45
2022/01/27 05:49:37;;;;;;;48.47;24.10;;;;;;;-2.23;95.50;96678.31;5012898;28;20093;-46
2022/01/27 05:52:04;;;;;;;52.53;24.17;;;;;;;-2.47;96.17;96672.22;5011820;28;20116;-44
2022/01/27 05:54:34;;;;;;;48.55;23.92;;;;;;;-2.25;96.27;96668.97;4992083;28;20594;-47
2022/01/27 05:57:01;;;;;;;45.60;23.63;;;;;;;-2.49;96.47;96670.84;5013124;28;20042;-47
2022/01/27 05:59:28;;;;;;;49.33;23.65;;;;;;;-2.57;97.42;96666.69;5012854;28;20046;-47
2022/01/27 06:01:55;;;;;;;52.28;24.02;;;;;;;-2.34;96.23;96668.50;4990774;28;20053;-52
2022/01/27 06:04:22;;;;;;;45.03;23.08;;;;;;;-2.04;95.18;96668.38;5012797;28;20073;-45
2022/01/27 06:06:50;;;;;;;50.00;23.98;;;;;;;-1.74;93.00;96664.72;5012747;28;20046;-45
2022/01/27 06:09:17;;;;;;;51.55;26.05;;;;;;;-1.73;92.04;96669.78;5007684;23;20045;-48
2022/01/27 06:11:44;;;;;;;48.95;24.55;;;;;;;-1.66;91.17;96669.63;5009027;28;20049;-49
2022/01/27 06:14:14;;;;;;;50.00;24.38;;;;;;;-1.71;91.25;96665.03;5032558;28;20044;-50
2022/01/27 06:16:44;;;;;;;52.00;24.35;;;;;;;-1.88;91.60;96653.56;5014119;28;20041;-54
2022/01/27 06:19:12;;;;;;;49.17;24.30;;;;;;;-1.45;90.17;96644.28;5016090;28;20069;-57
2022/01/27 06:21:42;;;;;;;48.65;25.38;;;;;;;-1.80;91.68;96639.94;5031880;28;20045;-49
2022/01/27 06:24:09;;;;;;;48.50;23.83;;;;;;;-1.64;90.12;96635.72;5012736;28;20042;-54
2022/01/27 06:26:36;;;;;;;46.15;24.35;;;;;;;-1.61;90.33;96648.50;5032092;28;20041;-52
2022/01/27 06:29:05;;;;;;;49.92;25.60;;;;;;;-1.99;92.48;96654.41;5032224;28;20053;-53
2022/01/27 06:31:32;;;;;;;49.22;24.30;;;;;;;-2.22;93.00;96664.00;5030910;28;20076;-56
2022/01/27 06:33:59;;;;;;;46.40;24.35;;;;;;;-1.81;91.42;96659.53;5030044;28;20042;-51
2022/01/27 06:36:27;;;;;;;45.75;23.98;;;;;;;-2.28;93.13;96650.88;5032161;28;20084;-53
2022/01/27 06:38:54;;;;;;;44.38;24.17;;;;;;;-1.77;90.87;96651.91;5014760;28;20123;-48
2022/01/27 06:41:21;;;;;;;47.30;22.55;;;;;;;-2.22;91.82;96658.69;5031457;28;20049;-53
2022/01/27 06:43:48;;;;;;;45.38;23.25;;;;;;;-2.18;91.83;96657.22;5019440;28;20088;-56
2022/01/27 06:46:15;;;;;;;51.00;23.00;;;;;;;-1.54;90.08;96658.97;5031874;28;20038;-52
2022/01/27 06:48:42;;;;;;;44.90;22.92;;;;;;;-2.12;92.18;96664.22;5031896;28;20069;-49
2022/01/27 06:51:09;;;;;;;46.80;24.27;;;;;;;-1.56;89.54;96659.22;5029750;28;20046;-47
2022/01/27 06:53:36;;;;;;;45.65;23.90;;;;;;;-1.43;88.13;96645.69;5023423;28;20041;-51
2022/01/27 06:56:04;;;;;;;45.03;22.88;;;;;;;-1.44;88.05;96651.19;5031803;28;20854;-51
2022/01/27 06:58:34;;;;;;;44.60;22.52;;;;;;;-1.61;88.79;96653.81;5031476;28;20041;-48
2022/01/27 07:01:01;;;;;;;45.83;22.85;;;;;;;-2.12;90.86;96648.31;5031341;28;20077;-48
2022/01/27 07:03:33;;;;;;;43.53;23.25;;;;;;;-1.67;89.76;96646.81;5014396;28;20037;-47
2022/01/27 07:06:00;;;;;;;41.95;22.95;;;;;;;-1.75;90.31;96637.38;5031850;28;20045;-50
2022/01/27 07:08:27;;;;;;;43.90;22.75;;;;;;;-1.86;88.68;96642.72;5024008;28;20045;-50
2022/01/27 07:10:54;;;;;;;43.85;21.80;;;;;;;-1.94;90.64;96646.56;5017264;28;20142;-53
2022/01/27 07:13:21;;;;;;;40.83;21.52;;;;;;;-1.82;89.94;96638.53;5031292;28;20044;-52
2022/01/27 07:15:49;;;;;;;43.67;21.52;;;;;;;-1.27;86.83;96641.44;5030973;28;20499;-52
2022/01/27 07:18:16;;;;;;;42.65;21.95;;;;;;;-1.17;86.47;96638.13;5020574;28;20150;-52
2022/01/27 07:20:45;;;;;;;36.13;20.58;;;;;;;-1.16;86.26;96638.94;5031381;28;20046;-51
2022/01/27 07:23:11;;;;;;;39.58;20.80;;;;;;;-1.25;85.80;96652.59;5021004;28;20061;-50
2022/01/27 07:25:39;;;;;;;39.17;20.05;;;;;;;-1.32;86.14;96641.34;5030816;28;20563;-50
2022/01/27 07:28:05;;;;;;;36.60;19.75;;;;;;;-1.27;85.86;96636.13;5031535;28;20049;-50
2022/01/27 07:30:33;;;;;;;45.10;20.58;;;;;;;-1.79;87.40;96648.69;5024934;28;20037;-49
2022/01/27 07:33:00;;;;;;;37.03;20.38;;;;;;;-2.19;89.80;96646.84;5027869;28;20543;-48
2022/01/27 07:35:27;;;;;;;37.63;19.50;;;;;;;-1.70;88.12;96647.28;5027015;28;20120;-49
2022/01/27 07:37:54;;;;;;;38.60;20.67;;;;;;;-1.51;87.14;96643.38;5030769;28;20053;-49
2022/01/27 07:40:22;;;;;;;32.63;18.85;;;;;;;-1.39;86.33;96635.38;5029919;28;20171;-50
2022/01/27 07:43:10;;;;;;;37.88;19.40;;;;;;;-1.11;85.09;96636.38;5000430;28;20072;-50
2022/01/27 07:45:37;;;;;;;37.30;18.92;;;;;;;-1.02;84.71;96641.03;5031058;28;20037;-49
2022/01/27 07:48:05;;;;;;;36.33;19.83;;;;;;;-0.87;84.26;96635.19;5025044;28;20049;-52
2022/01/27 07:50:32;;;;;;;30.48;17.55;;;;;;;-1.14;85.23;96644.81;5030833;28;20037;-54
2022/01/27 07:52:59;;;;;;;32.47;17.48;;;;;;;-1.35;86.48;96633.84;5022519;28;20483;-56
2022/01/27 07:55:26;;;;;;;38.00;18.17;;;;;;;-1.38;85.30;96638.84;5027690;28;20049;-56
2022/01/27 07:57:54;;;;;;;35.95;18.77;;;;;;;-1.29;85.07;96630.25;5026137;28;20398;-52
2022/01/27 08:00:21;;;;;;;33.53;17.48;;;;;;;-0.88;84.17;96636.22;5029172;28;20049;-53
2022/01/27 08:02:48;;;;;;;34.17;17.30;;;;;;;-1.29;85.96;96646.19;5011387;28;20053;-51
2022/01/27 08:05:15;;;;;;;30.52;16.73;;;;;;;-0.79;83.00;96644.59;5033742;28;20561;-49
2022/01/27 08:07:42;;;;;;;28.65;15.82;;;;;;;-0.58;82.50;96633.22;5035140;28;20140;-52
2022/01/27 08:10:10;;;;;;;28.77;15.75;;;;;;;-0.70;81.27;96621.88;5034782;28;20128;-52
2022/01/27 08:12:41;;;;;;;28.60;15.27;;;;;;;-0.91;81.66;96628.75;5017055;28;20124;-50
2022/01/27 08:15:11;;;;;;;30.02;15.65;;;;;;;-0.33;81.53;96634.63;5030851;28;21669;-52
2022/01/27 08:17:39;;;;;;;25.60;14.88;;;;;;;-0.42;81.03;96622.78;5015592;28;20055;-51
2022/01/27 08:20:06;;;;;;;23.83;14.25;;;;;;;-0.55;80.94;96627.44;5034115;28;20073;-47
2022/01/27 08:22:47;;;;;;;26.83;13.90;;;;;;;-0.66;80.92;96630.97;5030664;28;20388;-47
2022/01/27 08:25:15;;;;;;;20.80;12.02;;;;;;;-0.61;80.53;96633.72;5000343;28;20126;-56
2022/01/27 08:27:49;;;;;;;21.83;11.15;;;;;;;-0.38;77.39;96623.94;5034605;28;20064;-56
2022/01/27 08:30:18;;;;;;;18.70;11.05;;;;;;;-0.19;78.93;96619.13;5012677;28;20049;-52
2022/01/27 08:33:04;;;;;;;18.10;10.13;;;;;;;0.25;75.61;96619.09;5016759;28;20042;-53
2022/01/27 08:35:31;;;;;;;20.35;10.63;;;;;;;0.04;74.86;96616.22;5025548;28;20133;-49
2022/01/27 08:37:58;;;;;;;18.65;11.07;;;;;;;0.16;76.78;96624.88;5016605;28;20095;-52
2022/01/27 08:40:25;;;;;;;20.10;11.73;;;;;;;0.35;75.41;96621.88;5017092;28;20120;-51
2022/01/27 08:43:08;;;;;;;19.30;10.27;;;;;;;0.04;74.89;96629.53;5034360;28;20075;-53
2022/01/27 08:45:39;;;;;;;19.60;11.55;;;;;;;0.36;76.46;96628.81;5032634;28;20113;-49
2022/01/27 08:48:09;;;;;;;24.25;11.18;;;;;;;0.38;73.70;96632.81;5028013;28;20127;-56
2022/01/27 08:50:37;;;;;;;23.38;10.85;;;;;;;0.42;73.96;96635.78;5033848;28;20065;-51
2022/01/27 08:53:04;;;;;;;18.42;10.55;;;;;;;0.61;75.23;96626.41;5033007;28;20049;-52
2022/01/27 08:55:31;;;;;;;18.48;11.25;;;;;;;0.84;74.50;96629.81;5016440;28;20037;-49
2022/01/27 08:57:58;;;;;;;18.48;10.70;;;;;;;0.72;72.27;96635.31;5034172;28;20120;-51
2022/01/27 09:00:25;;;;;;;19.58;11.25;;;;;;;0.76;72.01;96623.09;5033752;28;20049;-51
2022/01/27 09:02:53;;;;;;;16.63;10.35;;;;;;;1.25;73.49;96624.81;5027740;28;20053;-54
2022/01/27 09:05:20;;;;;;;19.05;10.60;;;;;;;1.52;71.90;96614.88;5033534;28;20044;-49
2022/01/27 09:07:47;;;;;;;24.00;12.35;;;;;;;1.54;71.89;96623.44;5016675;28;20416;-49
2022/01/27 09:10:15;;;;;;;21.02;10.55;;;;;;;1.52;71.47;96619.41;5013054;28;20049;-51
2022/01/27 09:12:42;;;;;;;19.83;10.80;;;;;;;1.82;71.86;96616.09;5031540;28;20072;-51
2022/01/27 09:15:10;;;;;;;19.77;10.65;;;;;;;1.60;69.61;96613.59;5033043;28;20033;-55
2022/01/27 09:17:39;;;;;;;16.15;9.85;;;;;;;1.73;70.43;96609.66;5015623;28;20042;-53
2022/01/27 09:20:11;;;;;;;17.85;9.27;;;;;;;1.50;70.77;96609.00;5026877;28;20048;-50
2022/01/27 09:22:38;;;;;;;13.93;8.60;;;;;;;1.72;71.12;96595.50;5028390;28;20052;-54
2022/01/27 09:25:13;;;;;;;15.63;8.88;;;;;;;1.82;70.69;96608.09;5033486;28;20099;-54
2022/01/27 09:27:42;;;;;;;14.82;8.70;;;;;;;1.94;70.69;96611.34;5033554;28;20083;-53
2022/01/27 09:30:15;;;;;;;13.70;8.10;;;;;;;2.16;68.67;96607.72;5033380;28;20504;-53
2022/01/27 09:32:43;;;;;;;13.30;7.80;;;;;;;2.17;68.87;96602.09;5011694;28;20044;-54
2022/01/27 09:35:10;;;;;;;17.95;7.63;;;;;;;2.30;67.21;96608.81;5021245;28;20518;-47
2022/01/27 09:37:38;;;;;;;14.93;7.07;;;;;;;2.28;68.28;96602.97;5032581;28;20053;-51
2022/01/27 09:40:07;;;;;;;11.20;6.25;;;;;;;2.41;67.39;96591.78;5021563;28;20503;-52
2022/01/27 09:42:37;;;;;;;10.07;5.90;;;;;;;2.59;64.12;96598.47;5031926;28;20100;-50
2022/01/27 09:45:08;;;;;;;10.05;5.70;;;;;;;2.85;64.57;96599.31;5033340;28;20053;-53
2022/01/27 09:47:36;;;;;;;10.95;5.05;;;;;;;2.85;65.15;96595.84;5030090;28;20042;-49
2022/01/27 09:50:09;;;;;;;11.57;4.68;;;;;;;2.96;63.65;96598.25;5015083;28;20483;-52
2022/01/27 09:52:36;;;;;;;9.00;4.75;;;;;;;3.02;62.48;96589.19;5027039;28;20038;-54
2022/01/27 09:55:05;;;;;;;7.40;4.25;;;;;;;3.12;58.19;96599.06;4980570;28;20050;-54
2022/01/27 09:57:32;;;;;;;6.43;4.03;;;;;;;3.16;59.57;96594.00;5014891;28;20080;-54
2022/01/27 09:59:59;;;;;;;8.70;4.78;;;;;;;3.31;59.43;96585.13;5031099;28;20049;-52
2022/01/27 10:02:26;;;;;;;8.90;3.90;;;;;;;3.34;56.65;96590.75;5032389;28;20073;-49
2022/01/27 10:05:00;;;;;;;7.25;3.92;;;;;;;3.51;58.88;96577.91;5032293;28;20091;-51
2022/01/27 10:07:32;;;;;;;11.88;4.18;;;;;;;3.58;59.35;96574.94;5033153;28;20049;-52
2022/01/27 10:10:10;;;;;;;6.32;3.60;;;;;;;3.63;60.17;96574.09;5028283;28;20152;-52
2022/01/27 10:12:45;;;;;;;8.63;4.23;;;;;;;3.71;59.28;96566.34;5033024;28;20045;-52
2022/01/27 10:15:18;;;;;;;7.22;4.03;;;;;;;3.90;56.03;96557.69;5019907;28;20056;-53
2022/01/27 10:18:05;;;;;;;8.00;3.70;;;;;;;3.98;54.34;96568.63;5031588;28;20103;-53
2022/01/27 10:20:33;;;;;;;7.20;3.97;;;;;;;4.06;57.26;96574.50;5023040;28;20128;-53
2022/01/27 10:23:12;;;;;;;6.68;3.00;;;;;;;4.09;58.39;96563.22;5012863;28;20041;-49
2022/01/27 10:25:46;;;;;;;9.45;3.33;;;;;;;4.15;57.81;96568.28;5031672;28;20175;-53
2022/01/27 10:28:48;;;;;;;13.68;3.80;;;;;;;4.43;56.05;96563.34;5031618;28;20033;-51
2022/01/27 10:31:19;;;;;;;8.48;3.20;;;;;;;4.49;56.56;96561.44;5030817;28;20049;-49
2022/01/27 10:33:59;;;;;;;10.25;3.10;;;;;;;4.51;55.54;96553.91;5026755;28;20061;-49
2022/01/27 10:36:27;;;;;;;4.70;2.45;;;;;;;4.56;54.46;96568.06;5033026;28;20048;-53
2022/01/27 10:38:57;;;;;;;4.75;2.80;;;;;;;4.76;52.34;96550.25;5015138;28;20061;-56
2022/01/27 10:41:29;;;;;;;4.80;2.38;;;;;;;4.82;54.17;96552.63;5023366;28;20503;-56
2022/01/27 10:44:05;;;;;;;5.32;2.33;;;;;;;4.98;52.37;96549.81;5015013;28;20053;-54
2022/01/27 10:46:34;;;;;;;4.10;2.20;;;;;;;5.09;53.51;96554.00;5032000;28;20057;-53
2022/01/27 10:49:11;;;;;;;7.25;2.15;;;;;;;5.04;52.61;96549.50;5031142;28;20048;-55
2022/01/27 10:51:51;;;;;;;5.85;1.90;;;;;;;5.31;52.98;96559.72;5029421;28;20041;-54
2022/01/27 10:57:03;;;;;;;;;;;;;;;5.64;48.30;96557.22;5032383;28;20095;-56
2022/01/27 10:59:32;;;;;;;7.95;2.20;;;;;;;5.65;47.16;96561.50;5013636;28;19972;-53
2022/01/27 11:02:05;;;;;;;5.95;2.00;;;;;;;5.58;48.51;96551.09;5029594;28;20095;-54
2022/01/27 11:04:35;;;;;;;4.38;1.98;;;;;;;5.63;49.24;96536.84;4996618;28;20049;-52
2022/01/27 11:07:04;;;;;;;5.15;2.00;;;;;;;5.57;46.66;96544.16;5032056;28;20037;-54
2022/01/27 11:09:34;;;;;;;7.57;2.33;;;;;;;5.66;47.87;96541.66;5030760;28;20055;-52
2022/01/27 11:12:06;;;;;;;5.50;1.65;;;;;;;5.63;46.98;96543.00;5020644;28;20622;-52
2022/01/27 11:14:35;;;;;;;8.73;2.08;;;;;;;5.51;46.64;96537.22;5014079;28;20053;-50
2022/01/27 11:17:08;;;;;;;6.45;2.67;;;;;;;5.84;48.99;96529.34;5031991;28;20038;-50
2022/01/27 11:22:46;;;;;;;6.05;2.53;;;;;;;5.71;46.96;96522.00;5017696;28;20050;-50
2022/01/27 11:27:48;;;;;;;6.68;3.25;;;;;;;6.15;47.74;96524.44;5032017;28;20041;-53
2022/01/27 11:30:24;;;;;;;4.70;2.55;;;;;;;6.12;48.41;96516.94;5028776;28;20137;-56
2022/01/27 11:33:04;;;;;;;8.60;3.10;;;;;;;5.85;46.91;96509.47;5026958;28;20577;-49
2022/01/27 11:36:09;;;;;;;7.97;3.53;;;;;;;6.35;46.53;96520.66;5030899;28;20067;-52
2022/01/27 11:38:43;;;;;;;8.02;3.08;;;;;;;6.22;46.44;96516.81;5023186;28;20081;-53
2022/01/27 11:41:37;;;;;;;12.32;3.30;;;;;;;6.16;45.73;96517.97;5029786;28;20510;-52
2022/01/27 11:44:33;;;;;;;6.72;2.42;;;;;;;5.95;45.67;96519.34;4997427;28;20411;-53
2022/01/27 11:47:10;;;;;;;8.43;3.35;;;;;;;6.06;45.34;96504.66;5021572;28;20049;-52
2022/01/27 11:49:45;;;;;;;7.95;3.20;;;;;;;6.47;46.90;96499.53;5003412;28;20427;-47
2022/01/27 11:52:47;;;;;;;4.72;2.40;;;;;;;5.98;45.61;96499.94;5028781;28;20490;-47
2022/01/27 11:55:23;;;;;;;7.95;3.30;;;;;;;6.20;46.14;96497.47;5007373;28;20112;-49
2022/01/27 11:57:57;;;;;;;7.68;3.15;;;;;;;7.07;44.97;96487.28;5031127;28;20107;-48
2022/01/27 12:00:27;;;;;;;6.70;3.30;;;;;;;6.40;44.49;96490.22;5012857;28;20053;-50
2022/01/27 12:03:15;;;;;;;6.35;3.70;;;;;;;6.65;44.38;96492.53;5012896;28;20360;-51
2022/01/27 12:06:03;;;;;;;5.50;3.63;;;;;;;7.44;43.04;96479.06;5030059;28;20148;-49
2022/01/27 12:08:30;;;;;;;5.75;3.08;;;;;;;7.53;42.23;96481.84;5031068;28;20049;-49
2022/01/27 12:12:04;;;;;;;6.15;3.17;;;;;;;6.42;44.65;96485.38;5008545;28;20487;-51
2022/01/27 12:14:34;;;;;;;7.30;4.22;;;;;;;6.44;47.29;96483.19;5019968;28;20080;-53
2022/01/27 12:17:07;;;;;;;7.95;3.22;;;;;;;7.37;44.85;96473.25;5012940;28;20042;-49
2022/01/27 12:19:59;;;;;;;9.90;3.83;;;;;;;6.52;45.40;96474.44;5030465;28;20037;-51
2022/01/27 12:22:52;;;;;;;8.90;3.50;;;;;;;6.77;46.21;96479.44;4999869;28;20045;-53
2022/01/27 12:25:20;;;;;;;7.78;3.55;;;;;;;6.30;46.45;96483.09;5011856;28;20045;-51
2022/01/27 12:27:54;;;;;;;7.85;3.67;;;;;;;5.96;47.00;96486.81;5027451;28;20128;-47
2022/01/27 12:30:22;;;;;;;8.50;3.58;;;;;;;6.20;46.79;96481.34;5023563;28;20410;-53